Portada
METAR-TAF:

METAR-TAF

Aeropuertos :

Aeropuerto Internacional Rey Abdulaziz

Yida, Arabia Saudita

latitud: 21-42N, longitud: 039-11E, altitud: 15 m

Observación

El informe se hizo hace 21 minutos, a las 01:00 UTC
Viento calma
Temperatura 29°C
Humedad 62%
Presión 1006 hPa
Visibilidad 10 km o más
sin nubes por debajo de 1500 m y sin presencia de cumulonimbus.

METAR: OEJN 250100Z 00000KT CAVOK 29/21 Q1006 NOSIG

Hora: 04:21 (01:21 UTC)

Pronóstico

El informe se hizo hace 2 horas y 21 minutos, a las 23:00 UTC
Pronóstico válido del 25 a las 00 UTC al 26 a las 06 UTC
Viento 3 kt con dirección variable
Visibilidad: 7000 m
Escasas nubes a una altura de 4000 ft
Evolucionando progresivamente
del 25 a las 06 UTC al 25 a las 08 UTC
Viento 15 kt del sur-suroeste

TAF: OEJN 242300Z 2500/2606 VRB03KT 7000 FEW040 BECMG 2506/2508 20015KT

Observaciones y pronósticos meteorológicos de más de 4000 aeropuertos (mensajes METAR y TAF).

Los puntos amarillos y rojos representan las estaciones disponibles.

Ponga el ratón en el punto deseado para ver el nombre de la estación.

Haga clic para ver las observaciones y los pronósticos meteorológicos.

Para cambiar el mapa : haga clic en los botones verdes con una cruz de color negro para hacer un zoom, en el botón verde con un guión para alejar o en las flechas verdes para mapas adyacentes.


METAR-TAF: